createdAt,value
2023-03-13T00:01:57.778Z,99.90
2023-03-13T00:04:24.960Z,99.90
2023-03-13T00:06:52.006Z,99.90
2023-03-13T00:09:19.007Z,99.90
2023-03-13T00:11:47.320Z,99.90
2023-03-13T00:14:14.383Z,99.90
2023-03-13T00:16:41.552Z,99.90
2023-03-13T00:19:09.191Z,99.90
2023-03-13T00:21:41.464Z,99.90
2023-03-13T00:24:11.275Z,99.90
2023-03-13T00:26:38.383Z,99.90
2023-03-13T00:29:05.401Z,99.90
2023-03-13T00:31:32.968Z,99.90
2023-03-13T00:34:04.109Z,99.90
2023-03-13T00:36:34.177Z,99.90
2023-03-13T00:39:01.261Z,99.90
2023-03-13T00:41:33.448Z,99.90
2023-03-13T00:44:00.903Z,99.90
2023-03-13T00:46:29.658Z,99.90
2023-03-13T00:48:57.689Z,99.90
2023-03-13T00:51:27.355Z,99.90
2023-03-13T00:53:55.983Z,99.90
2023-03-13T00:56:23.231Z,99.90
2023-03-13T00:58:51.202Z,99.90
2023-03-13T01:01:27.753Z,99.90
2023-03-13T01:04:00.241Z,99.90
2023-03-13T01:06:30.038Z,99.90
2023-03-13T01:08:57.440Z,99.90
2023-03-13T01:11:30.141Z,99.90
2023-03-13T01:14:05.916Z,99.90
2023-03-13T01:16:34.794Z,99.90
2023-03-13T01:19:07.881Z,99.90
2023-03-13T01:21:35.255Z,99.90
2023-03-13T01:24:03.229Z,99.90
2023-03-13T01:26:30.547Z,99.90
2023-03-13T01:28:57.769Z,99.90
2023-03-13T01:31:35.736Z,99.90
2023-03-13T01:34:05.528Z,99.90
2023-03-13T01:36:33.579Z,99.90
2023-03-13T01:39:01.718Z,99.90
2023-03-13T01:41:30.192Z,99.90
2023-03-13T01:43:58.163Z,99.90
2023-03-13T01:46:29.961Z,99.90
2023-03-13T01:49:15.086Z,99.90
2023-03-13T01:51:50.666Z,99.90
2023-03-13T01:54:26.400Z,99.90
2023-03-13T01:57:04.848Z,99.90
2023-03-13T01:59:43.131Z,99.90
2023-03-13T02:02:11.090Z,99.90
2023-03-13T02:04:43.359Z,99.90
2023-03-13T02:07:16.333Z,99.90
2023-03-13T02:09:49.553Z,99.90
2023-03-13T02:12:24.162Z,99.90
2023-03-13T02:14:52.151Z,99.90
2023-03-13T02:17:19.244Z,99.90
2023-03-13T02:19:55.138Z,99.90
2023-03-13T02:22:48.340Z,99.90
2023-03-13T02:25:24.133Z,99.90
2023-03-13T02:28:33.901Z,99.90
2023-03-13T02:31:02.142Z,99.90
2023-03-13T02:33:36.105Z,99.90
2023-03-13T02:36:05.136Z,99.90
2023-03-13T02:38:35.736Z,99.90
2023-03-13T02:41:04.702Z,99.90
2023-03-13T02:43:34.882Z,99.90
2023-03-13T02:46:02.905Z,99.90
2023-03-13T02:48:41.874Z,99.90
2023-03-13T02:51:35.831Z,99.90
2023-03-13T02:54:07.418Z,99.90
2023-03-13T02:56:37.454Z,99.90
2023-03-13T02:59:04.878Z,99.90
2023-03-13T03:01:31.867Z,99.90
2023-03-13T03:03:59.006Z,99.90
2023-03-13T03:06:26.308Z,99.90
2023-03-13T03:08:53.302Z,99.90
2023-03-13T03:11:20.304Z,99.90
2023-03-13T03:13:47.287Z,99.90
2023-03-13T03:16:21.455Z,99.90
2023-03-13T03:18:48.817Z,99.90
2023-03-13T03:21:15.825Z,99.90
2023-03-13T03:23:42.784Z,99.90
2023-03-13T03:28:37.765Z,99.90
2023-03-13T03:31:09.609Z,99.90
2023-03-13T03:33:37.156Z,99.90
2023-03-13T03:36:07.348Z,99.90
2023-03-13T03:38:34.465Z,99.90
2023-03-13T03:41:01.578Z,99.90
2023-03-13T03:43:28.593Z,99.90
2023-03-13T03:45:55.552Z,99.90
2023-03-13T03:48:22.505Z,99.90
2023-03-13T03:50:49.589Z,99.90
2023-03-13T03:53:16.522Z,99.90
2023-03-13T03:55:43.472Z,99.90
2023-03-13T03:58:10.497Z,99.90
2023-03-13T04:00:37.472Z,99.90
2023-03-13T04:03:04.669Z,99.90
2023-03-13T04:05:31.662Z,99.90
2023-03-13T04:07:58.616Z,99.90
2023-03-13T04:10:25.527Z,99.90
2023-03-13T04:12:52.507Z,99.90
2023-03-13T04:15:19.496Z,99.90
2023-03-13T04:17:46.448Z,99.90
2023-03-13T04:20:14.468Z,99.90
2023-03-13T04:22:42.541Z,99.90
2023-03-13T04:25:09.967Z,99.90
2023-03-13T04:27:37.173Z,99.90
2023-03-13T04:30:04.721Z,99.90
2023-03-13T04:32:31.760Z,99.90
2023-03-13T04:34:59.064Z,99.90
2023-03-13T04:37:26.037Z,99.90
2023-03-13T04:39:53.001Z,99.90
2023-03-13T04:42:19.968Z,99.90
2023-03-13T04:44:46.872Z,99.90
2023-03-13T04:47:13.966Z,99.90
2023-03-13T04:49:40.914Z,99.90
2023-03-13T04:52:08.198Z,99.90
2023-03-13T04:54:35.124Z,99.90
2023-03-13T04:57:02.363Z,99.90
2023-03-13T04:59:29.623Z,99.90
2023-03-13T05:01:56.557Z,99.90
2023-03-13T05:04:23.519Z,99.90
2023-03-13T05:06:50.514Z,99.90
2023-03-13T05:09:17.534Z,99.90
2023-03-13T05:11:44.546Z,99.90
2023-03-13T05:14:11.722Z,99.90
2023-03-13T05:16:39.325Z,99.90
2023-03-13T05:19:06.356Z,99.90
2023-03-13T05:21:33.362Z,99.90
2023-03-13T05:24:00.379Z,99.90
2023-03-13T05:26:27.329Z,99.90
2023-03-13T05:28:54.312Z,99.90
2023-03-13T05:31:21.390Z,99.90
2023-03-13T05:33:48.461Z,99.90
2023-03-13T05:36:15.552Z,99.90
2023-03-13T05:38:42.753Z,99.90
2023-03-13T05:41:09.708Z,99.90
2023-03-13T05:43:36.677Z,99.90
2023-03-13T05:46:03.787Z,99.90
2023-03-13T05:48:30.837Z,99.90
2023-03-13T05:50:57.852Z,99.90
2023-03-13T05:53:24.768Z,99.90
2023-03-13T05:55:51.739Z,99.90
2023-03-13T05:58:18.685Z,99.90
2023-03-13T06:00:45.699Z,99.90
2023-03-13T06:03:14.378Z,99.90
2023-03-13T06:05:41.633Z,99.90
2023-03-13T06:08:08.735Z,99.90
2023-03-13T06:10:35.871Z,99.90
2023-03-13T06:13:17.166Z,99.90
2023-03-13T06:15:53.210Z,99.90
2023-03-13T06:18:20.396Z,99.90
2023-03-13T06:20:48.607Z,99.90
2023-03-13T06:23:15.880Z,99.90
2023-03-13T06:25:49.721Z,99.90
2023-03-13T06:28:17.433Z,99.90
2023-03-13T06:30:44.529Z,99.90
2023-03-13T06:33:11.886Z,99.90
2023-03-13T06:35:55.766Z,99.90
2023-03-13T06:38:26.718Z,99.90
2023-03-13T06:40:53.729Z,99.90
2023-03-13T06:43:21.267Z,99.90
2023-03-13T06:45:48.404Z,99.90
2023-03-13T06:48:15.373Z,99.90
2023-03-13T06:50:43.031Z,99.90
2023-03-13T06:53:19.163Z,99.90
2023-03-13T06:55:47.133Z,99.90
2023-03-13T06:58:30.618Z,99.90
2023-03-13T07:01:00.089Z,99.90
2023-03-13T07:03:27.271Z,99.90
2023-03-13T07:06:00.530Z,99.90
2023-03-13T07:08:28.400Z,99.90
2023-03-13T07:10:59.808Z,99.90
2023-03-13T07:13:27.024Z,99.90
2023-03-13T07:15:58.119Z,99.90
2023-03-13T07:18:25.110Z,99.90
2023-03-13T07:21:00.167Z,99.90
2023-03-13T07:23:29.357Z,99.90
2023-03-13T07:26:03.821Z,99.90
2023-03-13T07:28:31.729Z,99.90
2023-03-13T07:31:25.153Z,99.90
2023-03-13T07:33:56.391Z,99.90
2023-03-13T07:36:23.883Z,99.90
2023-03-13T07:38:52.164Z,99.90
2023-03-13T07:41:20.226Z,99.90
2023-03-13T07:43:47.406Z,99.90
2023-03-13T07:46:18.730Z,99.90
2023-03-13T07:48:46.071Z,99.90
2023-03-13T07:51:30.283Z,99.90
2023-03-13T07:54:04.187Z,99.90
2023-03-13T07:56:31.762Z,99.90
2023-03-13T07:58:58.694Z,99.90
2023-03-13T08:01:30.530Z,99.90
2023-03-13T08:03:58.891Z,99.90
2023-03-13T08:06:27.252Z,99.90
2023-03-13T08:08:58.321Z,99.90
2023-03-13T08:11:27.289Z,99.90
2023-03-13T08:13:55.590Z,99.90
2023-03-13T08:16:34.560Z,99.90
2023-03-13T08:19:05.190Z,99.90
2023-03-13T08:21:34.841Z,99.90
2023-03-13T08:24:06.103Z,99.90
2023-03-13T08:26:34.955Z,99.90
2023-03-13T08:29:07.846Z,99.90
2023-03-13T08:31:43.614Z,99.90
2023-03-13T08:34:12.651Z,99.90
2023-03-13T08:36:40.368Z,99.90
2023-03-13T08:39:12.224Z,99.90
2023-03-13T08:41:40.903Z,99.90
2023-03-13T08:46:49.623Z,99.90
2023-03-13T08:49:17.930Z,99.90
2023-03-13T08:51:45.010Z,99.90
2023-03-13T08:54:16.071Z,99.90
2023-03-13T08:56:43.743Z,99.90
2023-03-13T08:59:11.011Z,99.90
2023-03-13T09:01:38.014Z,99.90
2023-03-13T09:04:06.599Z,99.90
2023-03-13T09:06:35.903Z,99.90
2023-03-13T09:09:03.778Z,99.90
2023-03-13T09:11:30.732Z,99.90
2023-03-13T09:14:01.085Z,99.90
2023-03-13T09:16:30.435Z,99.90
2023-03-13T09:18:58.400Z,99.90
2023-03-13T09:21:30.757Z,99.90
2023-03-13T09:23:57.805Z,99.90
2023-03-13T09:26:29.650Z,99.90
2023-03-13T09:28:56.972Z,99.90
2023-03-13T09:31:25.379Z,99.90
2023-03-13T09:33:52.891Z,99.90
2023-03-13T09:36:22.671Z,99.90
2023-03-13T09:38:51.923Z,99.90
2023-03-13T09:41:22.434Z,99.90
2023-03-13T09:44:01.912Z,99.90
2023-03-13T09:46:44.072Z,99.70
2023-03-13T09:49:45.582Z,99.80
2023-03-13T09:52:40.930Z,99.70
2023-03-13T09:55:17.251Z,99.70
2023-03-13T09:57:55.895Z,99.70
2023-03-13T10:00:29.540Z,99.10
2023-03-13T10:03:17.080Z,99.90
2023-03-13T10:05:48.959Z,99.70
2023-03-13T10:11:02.213Z,99.60
2023-03-13T10:13:53.351Z,99.50
2023-03-13T10:16:49.170Z,99.60
2023-03-13T10:19:19.638Z,99.10
2023-03-13T10:21:53.837Z,98.40
2023-03-13T10:24:32.803Z,97.90
2023-03-13T10:26:59.888Z,97.80
2023-03-13T10:29:29.246Z,96.90
2023-03-13T10:32:02.167Z,96.50
2023-03-13T10:34:44.713Z,97.20
2023-03-13T10:37:16.706Z,96.20
2023-03-13T10:39:43.701Z,97.00
2023-03-13T10:42:19.400Z,96.70
2023-03-13T10:44:46.420Z,96.50
2023-03-13T10:47:14.866Z,97.60
2023-03-13T10:49:55.783Z,97.80
2023-03-13T10:52:43.225Z,97.40
2023-03-13T10:55:19.093Z,97.00
2023-03-13T10:58:05.622Z,97.00
2023-03-13T11:00:41.220Z,97.40
2023-03-13T11:03:14.793Z,98.10
2023-03-13T11:05:43.343Z,98.40
2023-03-13T11:08:32.167Z,98.00
2023-03-13T11:11:01.449Z,97.40
2023-03-13T11:13:39.153Z,97.30
2023-03-13T11:16:26.602Z,98.40
2023-03-13T11:19:28.405Z,98.10
2023-03-13T11:22:15.373Z,98.60
2023-03-13T11:25:09.746Z,98.20
2023-03-13T11:27:56.677Z,97.80
2023-03-13T11:30:32.968Z,97.70
2023-03-13T11:33:22.402Z,98.10
2023-03-13T11:36:05.974Z,98.80
2023-03-13T11:38:36.742Z,99.40
2023-03-13T11:41:43.409Z,99.40
2023-03-13T11:44:43.425Z,99.40
2023-03-13T11:47:31.313Z,99.70
2023-03-13T11:50:27.334Z,99.90
2023-03-13T11:53:13.968Z,99.90
2023-03-13T11:55:44.234Z,99.90
2023-03-13T11:58:16.954Z,99.90
2023-03-13T12:01:05.686Z,99.90
2023-03-13T12:04:00.178Z,99.90
2023-03-13T12:06:35.128Z,99.90
2023-03-13T12:09:29.998Z,99.90
2023-03-13T12:12:12.202Z,99.90
2023-03-13T12:14:47.103Z,99.90
2023-03-13T12:17:30.214Z,99.90
2023-03-13T12:20:50.428Z,99.90
2023-03-13T12:23:35.147Z,99.90
2023-03-13T12:26:11.784Z,99.90
2023-03-13T12:29:01.927Z,99.90
2023-03-13T12:31:38.432Z,99.90
2023-03-13T12:34:34.472Z,99.90
2023-03-13T12:37:18.810Z,99.90
2023-03-13T12:40:07.399Z,99.90
2023-03-13T12:43:24.265Z,99.90
2023-03-13T12:46:02.899Z,99.90
2023-03-13T12:48:42.827Z,99.90
2023-03-13T12:51:31.375Z,99.90
2023-03-13T12:54:35.535Z,99.90
2023-03-13T12:57:21.725Z,99.90
2023-03-13T13:00:05.712Z,99.90
2023-03-13T13:02:33.046Z,99.90
2023-03-13T13:05:02.289Z,99.90
2023-03-13T13:07:32.690Z,99.90
2023-03-13T13:10:10.679Z,99.90
2023-03-13T13:12:46.546Z,99.90
2023-03-13T13:15:26.355Z,99.90
2023-03-13T13:18:02.271Z,99.90
2023-03-13T13:20:41.233Z,99.90
2023-03-13T13:23:27.718Z,99.90
2023-03-13T13:25:56.795Z,99.90
2023-03-13T13:28:32.254Z,99.90
2023-03-13T13:30:59.591Z,99.90
2023-03-13T13:33:31.087Z,99.90
2023-03-13T13:36:28.835Z,99.90
2023-03-13T13:38:56.965Z,99.90
2023-03-13T13:41:28.344Z,99.90
2023-03-13T13:44:21.858Z,99.90
2023-03-13T13:46:49.132Z,99.90
2023-03-13T13:49:21.312Z,99.90
2023-03-13T13:52:08.683Z,99.90
2023-03-13T13:54:47.508Z,99.90
2023-03-13T13:57:23.063Z,99.90
2023-03-13T13:59:54.648Z,99.90
2023-03-13T14:02:37.050Z,99.90
2023-03-13T14:05:15.744Z,99.90
2023-03-13T14:08:04.945Z,99.90
2023-03-13T14:10:38.108Z,99.90
2023-03-13T14:13:16.927Z,99.90
2023-03-13T14:15:46.917Z,99.90
2023-03-13T14:18:22.412Z,99.90
2023-03-13T14:20:53.050Z,99.90
2023-03-13T14:23:49.912Z,99.90
2023-03-13T14:26:19.426Z,99.90
2023-03-13T14:28:50.022Z,99.90
2023-03-13T14:31:32.151Z,99.90
2023-03-13T14:34:01.687Z,99.90
2023-03-13T14:36:29.176Z,99.90
2023-03-13T14:38:58.487Z,99.90
2023-03-13T14:41:37.856Z,99.90
2023-03-13T14:44:18.487Z,99.90
2023-03-13T14:46:45.649Z,99.90
2023-03-13T14:49:21.532Z,99.90
2023-03-13T14:52:02.049Z,99.90
2023-03-13T14:54:37.337Z,99.90
2023-03-13T14:57:04.306Z,99.90
2023-03-13T14:59:31.358Z,99.90
2023-03-13T15:02:00.964Z,99.90
2023-03-13T15:04:50.650Z,99.90
2023-03-13T15:07:18.541Z,99.90
2023-03-13T15:09:47.292Z,99.90
2023-03-13T15:12:17.084Z,99.90
2023-03-13T15:14:46.694Z,99.90
2023-03-13T15:17:17.604Z,99.90
2023-03-13T15:19:48.262Z,99.90
2023-03-13T15:22:17.026Z,99.90
2023-03-13T15:24:56.119Z,99.90
2023-03-13T15:27:31.857Z,99.90
2023-03-13T15:29:58.911Z,99.90
2023-03-13T15:32:38.353Z,99.90
2023-03-13T15:35:25.048Z,99.90
2023-03-13T15:37:52.146Z,99.90
2023-03-13T15:40:20.196Z,99.90
2023-03-13T15:42:47.520Z,99.90
2023-03-13T15:45:14.520Z,99.90
2023-03-13T15:47:44.191Z,99.90
2023-03-13T15:50:16.314Z,99.90
2023-03-13T15:52:43.359Z,99.90
2023-03-13T15:55:12.410Z,99.90
2023-03-13T15:57:50.446Z,99.90
2023-03-13T16:00:27.021Z,99.90
2023-03-13T16:02:54.178Z,99.90
2023-03-13T16:05:21.161Z,99.90
2023-03-13T16:07:48.186Z,99.90
2023-03-13T16:10:21.981Z,99.90
2023-03-13T16:12:50.149Z,99.90
2023-03-13T16:15:17.181Z,99.90
2023-03-13T16:17:44.145Z,99.90
2023-03-13T16:20:21.008Z,99.90
2023-03-13T16:22:48.339Z,99.90
2023-03-13T16:25:15.836Z,99.90
2023-03-13T16:27:43.344Z,99.90
2023-03-13T16:30:17.926Z,99.90
2023-03-13T16:32:45.671Z,99.90
2023-03-13T16:35:13.048Z,99.90
2023-03-13T16:37:40.579Z,99.90
2023-03-13T16:40:19.421Z,99.90
2023-03-13T16:42:47.043Z,99.90
2023-03-13T16:45:14.890Z,99.90
2023-03-13T16:47:44.109Z,99.90
2023-03-13T16:50:21.708Z,99.90
2023-03-13T16:52:49.164Z,99.90
2023-03-13T16:55:16.732Z,99.90
2023-03-13T16:57:43.808Z,99.90
2023-03-13T17:00:18.744Z,99.90
2023-03-13T17:02:45.844Z,99.90
2023-03-13T17:05:15.984Z,99.90
2023-03-13T17:07:48.479Z,99.90
2023-03-13T17:10:22.798Z,99.90
2023-03-13T17:12:50.349Z,99.90
2023-03-13T17:15:18.556Z,99.90
2023-03-13T17:17:51.504Z,99.90
2023-03-13T17:20:27.224Z,99.90
2023-03-13T17:22:56.421Z,99.90
2023-03-13T17:25:24.249Z,99.90
2023-03-13T17:27:51.260Z,99.90
2023-03-13T17:30:24.073Z,99.90
2023-03-13T17:32:51.297Z,99.90
2023-03-13T17:35:20.383Z,99.90
2023-03-13T17:37:48.644Z,99.90
2023-03-13T17:40:24.376Z,99.90
2023-03-13T17:42:51.611Z,99.90
2023-03-13T17:45:19.471Z,99.90
2023-03-13T17:47:49.240Z,99.90
2023-03-13T17:50:26.474Z,99.90
2023-03-13T17:52:54.013Z,99.90
2023-03-13T17:55:21.567Z,99.90
2023-03-13T17:57:49.542Z,99.90
2023-03-13T18:00:30.334Z,99.90
2023-03-13T18:02:58.654Z,99.90
2023-03-13T18:05:26.597Z,99.90
2023-03-13T18:07:56.046Z,99.90
2023-03-13T18:10:25.857Z,99.90
2023-03-13T18:12:53.258Z,99.90
2023-03-13T18:15:21.736Z,99.90
2023-03-13T18:17:49.024Z,99.90
2023-03-13T18:20:24.526Z,99.90
2023-03-13T18:22:51.616Z,99.90
2023-03-13T18:25:19.574Z,99.90
2023-03-13T18:27:46.600Z,99.90
2023-03-13T18:30:15.714Z,99.90
2023-03-13T18:32:47.265Z,99.90
2023-03-13T18:35:14.488Z,99.90
2023-03-13T18:37:43.957Z,99.90
2023-03-13T18:40:19.805Z,99.90
2023-03-13T18:42:47.256Z,99.90
2023-03-13T18:45:16.529Z,99.90
2023-03-13T18:47:43.572Z,99.90
2023-03-13T18:50:27.176Z,99.90
2023-03-13T18:52:55.573Z,99.90
2023-03-13T18:55:28.301Z,99.90
2023-03-13T18:57:56.214Z,99.90
2023-03-13T19:00:30.206Z,99.90
2023-03-13T19:02:57.244Z,99.90
2023-03-13T19:05:24.551Z,99.90
2023-03-13T19:07:51.540Z,99.90
2023-03-13T19:10:27.169Z,99.90
2023-03-13T19:12:56.144Z,99.90
2023-03-13T19:15:27.347Z,99.90
2023-03-13T19:17:56.275Z,99.90
2023-03-13T19:20:24.527Z,99.90
2023-03-13T19:22:51.660Z,99.90
2023-03-13T19:25:19.771Z,99.90
2023-03-13T19:27:48.449Z,99.90
2023-03-13T19:30:20.882Z,99.90
2023-03-13T19:33:00.601Z,99.90
2023-03-13T19:35:27.578Z,99.90
2023-03-13T19:37:54.542Z,99.90
2023-03-13T19:40:25.596Z,99.90
2023-03-13T19:42:52.687Z,99.90
2023-03-13T19:45:21.947Z,99.90
2023-03-13T19:47:49.239Z,99.90
2023-03-13T19:50:21.868Z,99.90
2023-03-13T19:52:48.963Z,99.90
2023-03-13T19:55:16.146Z,99.90
2023-03-13T19:57:43.174Z,99.90
2023-03-13T20:00:28.065Z,99.90
2023-03-13T20:02:55.679Z,99.90
2023-03-13T20:05:23.797Z,99.90
2023-03-13T20:07:53.394Z,99.90
2023-03-13T20:10:21.118Z,99.90
2023-03-13T20:12:48.101Z,99.90
2023-03-13T20:15:15.204Z,99.90
2023-03-13T20:17:42.208Z,99.90
2023-03-13T20:20:11.045Z,99.90
2023-03-13T20:22:37.989Z,99.90
2023-03-13T20:25:05.282Z,99.90
2023-03-13T20:27:32.253Z,99.90
2023-03-13T20:30:00.031Z,99.90
2023-03-13T20:32:27.710Z,99.90
2023-03-13T20:34:54.696Z,99.90
2023-03-13T20:37:21.919Z,99.90
2023-03-13T20:39:48.845Z,99.90
2023-03-13T20:42:16.688Z,99.90
2023-03-13T20:44:43.899Z,99.90
2023-03-13T20:47:10.813Z,99.90
2023-03-13T20:49:41.101Z,99.90
2023-03-13T20:52:08.310Z,99.90
2023-03-13T20:54:35.930Z,99.90
2023-03-13T20:57:02.849Z,99.90
2023-03-13T20:59:29.899Z,99.90
2023-03-13T21:01:56.880Z,99.90
2023-03-13T21:04:23.992Z,99.90
2023-03-13T21:06:50.995Z,99.90
2023-03-13T21:09:17.978Z,99.90
2023-03-13T21:11:44.899Z,99.90
2023-03-13T21:14:11.891Z,99.90
2023-03-13T21:16:38.853Z,99.90
2023-03-13T21:19:06.020Z,99.90
2023-03-13T21:21:32.998Z,99.90
2023-03-13T21:23:59.972Z,99.90
2023-03-13T21:26:26.929Z,99.90
2023-03-13T21:28:53.964Z,99.90
2023-03-13T21:31:21.349Z,99.90
2023-03-13T21:33:49.012Z,99.90
2023-03-13T21:36:18.603Z,99.90
2023-03-13T21:38:45.893Z,99.90
2023-03-13T21:41:15.528Z,99.90
2023-03-13T21:43:43.243Z,99.90
2023-03-13T21:46:11.756Z,99.90
2023-03-13T21:48:39.391Z,99.90
2023-03-13T21:51:07.177Z,99.90
2023-03-13T21:53:34.827Z,99.90
2023-03-13T21:56:02.216Z,99.90
2023-03-13T21:58:29.361Z,99.90
2023-03-13T22:00:57.693Z,99.90
2023-03-13T22:03:29.087Z,99.90
2023-03-13T22:05:56.231Z,99.90
2023-03-13T22:08:23.206Z,99.90
2023-03-13T22:10:52.378Z,99.90
2023-03-13T22:13:19.469Z,99.90
2023-03-13T22:15:46.969Z,99.90
2023-03-13T22:18:15.611Z,99.90
2023-03-13T22:20:43.578Z,99.90
2023-03-13T22:23:11.961Z,99.90
2023-03-13T22:25:42.756Z,99.90
2023-03-13T22:28:11.261Z,99.90
2023-03-13T22:30:38.991Z,99.90
2023-03-13T22:33:07.046Z,99.90
2023-03-13T22:35:35.185Z,99.90
2023-03-13T22:38:02.335Z,99.90
2023-03-13T22:40:29.360Z,99.90
2023-03-13T22:42:56.317Z,99.90
2023-03-13T22:45:23.831Z,99.90
2023-03-13T22:47:50.838Z,99.90
2023-03-13T22:50:19.797Z,99.90
2023-03-13T22:52:47.088Z,99.90
2023-03-13T22:55:14.017Z,99.90
2023-03-13T22:57:40.983Z,99.90
2023-03-13T23:00:09.478Z,99.90
2023-03-13T23:02:36.415Z,99.90
2023-03-13T23:05:03.408Z,99.90
2023-03-13T23:07:30.823Z,99.90
2023-03-13T23:09:58.622Z,99.90
2023-03-13T23:12:26.803Z,99.90
2023-03-13T23:17:37.823Z,99.90
2023-03-13T23:20:12.920Z,99.90
2023-03-13T23:22:42.047Z,99.90
2023-03-13T23:25:10.005Z,99.90
2023-03-13T23:27:37.048Z,99.90
2023-03-13T23:30:06.113Z,99.90
2023-03-13T23:32:38.429Z,99.90
2023-03-13T23:35:06.472Z,99.90
2023-03-13T23:37:33.636Z,99.90
2023-03-13T23:40:01.846Z,99.90
2023-03-13T23:42:28.898Z,99.90
2023-03-13T23:44:55.851Z,99.90
2023-03-13T23:47:22.792Z,99.90
2023-03-13T23:49:51.972Z,99.90
2023-03-13T23:52:18.919Z,99.90
2023-03-13T23:54:47.225Z,99.90
2023-03-13T23:57:14.169Z,99.90
2023-03-13T23:59:41.174Z,99.90
